createdAt,value
2022-08-31T00:02:37.354Z,14.56
2022-08-31T00:08:25.311Z,14.60
2022-08-31T00:13:37.226Z,14.61
2022-08-31T00:19:09.909Z,14.62
2022-08-31T00:24:42.647Z,14.62
2022-08-31T00:30:47.083Z,14.63
2022-08-31T00:36:27.304Z,14.61
2022-08-31T00:41:48.805Z,14.61
2022-08-31T00:47:46.678Z,14.60
2022-08-31T00:53:41.464Z,14.57
2022-08-31T00:59:37.480Z,14.53
2022-08-31T01:05:09.182Z,14.48
2022-08-31T01:11:13.337Z,14.41
2022-08-31T01:16:53.337Z,14.35
2022-08-31T01:23:12.161Z,14.29
2022-08-31T01:28:51.383Z,14.22
2022-08-31T01:34:49.351Z,14.18
2022-08-31T01:41:23.181Z,14.15
2022-08-31T01:46:58.124Z,14.11
2022-08-31T01:52:59.801Z,14.07
2022-08-31T01:59:24.612Z,14.03
2022-08-31T02:05:46.309Z,13.93
2022-08-31T02:11:39.741Z,13.86
2022-08-31T02:17:17.815Z,13.84
2022-08-31T02:23:13.952Z,13.82
2022-08-31T02:29:24.195Z,13.81
2022-08-31T02:35:18.151Z,13.83
2022-08-31T02:41:00.297Z,13.87
2022-08-31T02:46:19.514Z,13.91
2022-08-31T02:52:02.834Z,13.92
2022-08-31T02:57:25.163Z,13.96
2022-08-31T03:02:32.080Z,13.98
2022-08-31T03:08:31.220Z,14.02
2022-08-31T03:13:45.818Z,14.06
2022-08-31T03:19:08.234Z,14.09
2022-08-31T03:25:18.095Z,14.15
2022-08-31T03:30:31.450Z,14.22
2022-08-31T03:36:10.186Z,14.30
2022-08-31T03:41:52.072Z,14.37
2022-08-31T03:47:32.628Z,14.42
2022-08-31T03:53:11.254Z,14.44
2022-08-31T03:58:47.023Z,14.49
2022-08-31T04:04:07.216Z,14.52
2022-08-31T04:10:30.938Z,14.54
2022-08-31T04:16:09.259Z,14.56
2022-08-31T04:21:56.165Z,14.59
2022-08-31T04:27:13.137Z,14.63
2022-08-31T04:33:48.839Z,14.65
2022-08-31T04:39:05.972Z,14.71
2022-08-31T04:44:20.100Z,14.79
2022-08-31T04:49:34.186Z,14.86
2022-08-31T04:55:09.747Z,14.94
2022-08-31T05:00:53.722Z,15.04
2022-08-31T05:06:13.784Z,15.15
2022-08-31T05:11:39.861Z,15.27
2022-08-31T05:17:25.270Z,15.42
2022-08-31T05:23:26.339Z,15.62
2022-08-31T05:28:44.285Z,15.77
2022-08-31T05:34:44.574Z,15.92
2022-08-31T05:40:07.475Z,16.04
2022-08-31T05:45:58.917Z,16.18
2022-08-31T05:51:46.258Z,16.38
2022-08-31T05:58:13.723Z,16.58
2022-08-31T06:04:42.990Z,16.85
2022-08-31T06:10:05.514Z,17.11
2022-08-31T06:15:13.972Z,17.29
2022-08-31T06:20:39.596Z,17.50
2022-08-31T06:25:54.765Z,17.65
2022-08-31T06:30:56.999Z,17.74
2022-08-31T06:35:59.340Z,17.90
2022-08-31T06:41:36.361Z,18.12
2022-08-31T06:47:08.294Z,18.24
2022-08-31T06:52:20.514Z,18.38
2022-08-31T06:57:35.642Z,18.53
2022-08-31T07:03:24.875Z,18.81
2022-08-31T07:08:51.864Z,19.08
2022-08-31T07:14:00.108Z,19.26
2022-08-31T07:19:27.434Z,19.45
2022-08-31T07:24:35.423Z,19.62
2022-08-31T07:30:00.651Z,19.71
2022-08-31T07:35:15.370Z,19.73
2022-08-31T07:40:49.406Z,19.73
2022-08-31T07:45:55.594Z,19.85
2022-08-31T07:51:00.554Z,19.96
2022-08-31T07:56:21.949Z,20.11
2022-08-31T08:01:32.385Z,20.22
2022-08-31T08:06:39.478Z,20.26
2022-08-31T08:12:01.145Z,20.36
2022-08-31T08:17:50.813Z,20.51
2022-08-31T08:22:58.528Z,20.63
2022-08-31T08:28:40.274Z,20.76
2022-08-31T08:33:46.139Z,20.83
2022-08-31T08:38:57.512Z,20.90
2022-08-31T08:44:23.101Z,20.92
2022-08-31T08:50:23.074Z,20.90
2022-08-31T08:56:17.256Z,21.14
2022-08-31T09:01:30.628Z,21.26
2022-08-31T09:06:46.062Z,21.34
2022-08-31T09:12:14.048Z,21.40
2022-08-31T09:17:31.097Z,21.66
2022-08-31T09:23:01.907Z,21.67
2022-08-31T09:28:29.578Z,21.54
2022-08-31T09:33:55.851Z,21.51
2022-08-31T09:39:34.502Z,21.64
2022-08-31T09:44:43.400Z,21.73
2022-08-31T09:49:55.564Z,21.77
2022-08-31T09:55:27.831Z,21.91
2022-08-31T10:01:52.506Z,21.98
2022-08-31T10:07:42.126Z,22.30
2022-08-31T10:13:15.576Z,22.62
2022-08-31T10:18:53.100Z,22.66
2022-08-31T10:24:55.904Z,22.58
2022-08-31T10:30:30.713Z,22.46
2022-08-31T10:36:16.333Z,22.42
2022-08-31T10:41:29.039Z,22.45
2022-08-31T10:46:35.655Z,22.41
2022-08-31T10:51:46.863Z,22.47
2022-08-31T10:57:39.354Z,22.49
2022-08-31T11:03:23.262Z,22.43
2022-08-31T11:08:35.341Z,22.48
2022-08-31T11:14:07.423Z,22.62
2022-08-31T11:20:12.642Z,22.66
2022-08-31T11:25:56.098Z,22.77
2022-08-31T11:31:01.770Z,22.88
2022-08-31T11:36:12.727Z,22.84
2022-08-31T11:41:35.884Z,22.80
2022-08-31T11:46:39.800Z,22.72
2022-08-31T11:51:55.762Z,22.83
2022-08-31T11:57:15.842Z,22.96
2022-08-31T12:02:41.239Z,23.13
2022-08-31T12:07:50.684Z,23.22
2022-08-31T12:13:09.822Z,23.22
2022-08-31T12:18:43.073Z,23.17
2022-08-31T12:24:15.355Z,23.17
2022-08-31T12:29:40.412Z,23.21
2022-08-31T12:35:07.122Z,23.25
2022-08-31T12:40:34.542Z,23.27
2022-08-31T12:46:15.601Z,23.24
2022-08-31T12:52:03.476Z,23.34
2022-08-31T12:57:14.284Z,23.38
2022-08-31T13:02:38.125Z,23.49
2022-08-31T13:07:47.773Z,23.58
2022-08-31T13:12:53.535Z,23.51
2022-08-31T13:18:30.762Z,23.44
2022-08-31T13:23:46.671Z,23.47
2022-08-31T13:29:07.726Z,23.44
2022-08-31T13:34:12.372Z,23.24
2022-08-31T13:39:35.463Z,22.96
2022-08-31T13:45:19.469Z,22.67
2022-08-31T13:50:52.634Z,22.49
2022-08-31T13:56:55.021Z,22.44
2022-08-31T14:02:30.772Z,22.44
2022-08-31T14:08:07.450Z,22.40
2022-08-31T14:14:25.553Z,22.25
2022-08-31T14:20:06.863Z,22.18
2022-08-31T14:25:22.212Z,22.16
2022-08-31T14:30:35.720Z,22.19
2022-08-31T14:36:14.743Z,22.12
2022-08-31T14:41:19.321Z,21.99
2022-08-31T14:46:31.510Z,21.97
2022-08-31T14:51:42.047Z,21.98
2022-08-31T14:56:58.294Z,21.97
2022-08-31T15:02:13.825Z,21.94
2022-08-31T15:07:19.800Z,21.82
2022-08-31T15:12:22.494Z,21.59
2022-08-31T15:17:36.807Z,21.35
2022-08-31T15:22:45.137Z,21.20
2022-08-31T15:27:51.866Z,21.07
2022-08-31T15:33:01.506Z,20.99
2022-08-31T15:38:36.875Z,20.91
2022-08-31T15:44:33.060Z,20.85
2022-08-31T15:50:02.719Z,20.80
2022-08-31T15:55:31.845Z,20.68
2022-08-31T16:01:09.975Z,20.55
2022-08-31T16:06:40.446Z,20.41
2022-08-31T16:12:10.452Z,20.31
2022-08-31T16:17:21.479Z,20.22
2022-08-31T16:22:33.198Z,20.12
2022-08-31T16:27:59.910Z,20.03
2022-08-31T16:33:12.418Z,19.89
2022-08-31T16:38:25.975Z,19.80
2022-08-31T16:43:30.917Z,19.68
2022-08-31T16:49:15.212Z,19.54
2022-08-31T16:55:16.122Z,19.37
2022-08-31T17:01:00.584Z,19.23
2022-08-31T17:06:05.599Z,19.07
2022-08-31T17:11:22.575Z,18.90
2022-08-31T17:17:02.924Z,18.74
2022-08-31T17:22:25.625Z,18.60
2022-08-31T17:27:59.816Z,18.45
2022-08-31T17:33:17.642Z,18.27
2022-08-31T17:38:55.223Z,18.09
2022-08-31T17:44:05.047Z,17.91
2022-08-31T17:49:25.061Z,17.74
2022-08-31T17:55:02.020Z,17.57
2022-08-31T18:00:50.789Z,17.41
2022-08-31T18:06:03.650Z,17.30
2022-08-31T18:11:34.056Z,17.19
2022-08-31T18:16:39.582Z,17.07
2022-08-31T18:22:03.750Z,16.99
2022-08-31T18:27:53.664Z,16.88
2022-08-31T18:33:37.990Z,16.78
2022-08-31T18:38:57.579Z,16.71
2022-08-31T18:44:34.965Z,16.62
2022-08-31T18:50:44.692Z,16.53
2022-08-31T18:56:41.280Z,16.42
2022-08-31T19:02:33.561Z,16.30
2022-08-31T19:08:20.623Z,16.18
2022-08-31T19:13:46.677Z,16.04
2022-08-31T19:19:16.902Z,15.93
2022-08-31T19:24:40.851Z,15.83
2022-08-31T19:30:33.507Z,15.75
2022-08-31T19:36:26.573Z,15.62
2022-08-31T19:42:16.496Z,15.47
2022-08-31T19:48:01.285Z,15.36
2022-08-31T19:53:50.897Z,15.23
2022-08-31T19:59:21.202Z,15.13
2022-08-31T20:04:42.547Z,15.02
2022-08-31T20:09:54.611Z,14.95
2022-08-31T20:14:56.700Z,14.86
2022-08-31T20:20:57.545Z,14.79
2022-08-31T20:26:52.709Z,14.69
2022-08-31T20:32:19.222Z,14.62
2022-08-31T20:38:06.533Z,14.58
2022-08-31T20:43:39.916Z,14.58
2022-08-31T20:49:26.608Z,14.58
2022-08-31T20:56:17.947Z,14.54
2022-08-31T21:02:09.919Z,14.48
2022-08-31T21:07:57.523Z,14.48
2022-08-31T21:13:37.455Z,14.47
2022-08-31T21:19:52.914Z,14.45
2022-08-31T21:26:39.541Z,14.45
2022-08-31T21:32:53.073Z,14.44
2022-08-31T21:39:13.882Z,14.40
2022-08-31T21:45:18.847Z,14.29
2022-08-31T21:51:15.096Z,14.22
2022-08-31T21:57:57.174Z,14.17
2022-08-31T22:04:40.677Z,14.14
2022-08-31T22:11:01.357Z,14.12
2022-08-31T22:18:04.778Z,14.12
2022-08-31T22:24:29.933Z,14.14
2022-08-31T22:31:03.364Z,14.15
2022-08-31T22:37:49.598Z,14.12
2022-08-31T22:44:29.840Z,14.10
2022-08-31T22:50:25.823Z,14.08
2022-08-31T22:56:49.899Z,14.06
2022-08-31T23:02:52.577Z,14.05
2022-08-31T23:09:44.106Z,13.99
2022-08-31T23:15:46.673Z,13.95
2022-08-31T23:22:28.718Z,13.92
2022-08-31T23:28:49.690Z,13.88
2022-08-31T23:35:16.912Z,13.81
2022-08-31T23:42:02.545Z,13.74
2022-08-31T23:48:08.163Z,13.69
2022-08-31T23:53:50.925Z,13.71
